createdAt,value
2017-10-15T00:00:35.953Z,1007.66
2017-10-15T00:01:35.987Z,1007.66
2017-10-15T00:02:36.022Z,1007.70
2017-10-15T00:03:36.054Z,1007.65
2017-10-15T00:04:36.088Z,1007.60
2017-10-15T00:05:36.122Z,1007.64
2017-10-15T00:06:36.156Z,1007.60
2017-10-15T00:07:36.190Z,1007.58
2017-10-15T00:08:36.223Z,1007.59
2017-10-15T00:09:36.258Z,1007.61
2017-10-15T00:10:36.292Z,1007.57
2017-10-15T00:11:36.326Z,1007.58
2017-10-15T00:12:36.360Z,1007.57
2017-10-15T00:13:36.393Z,1007.58
2017-10-15T00:14:36.429Z,1007.55
2017-10-15T00:15:36.462Z,1007.57
2017-10-15T00:16:36.494Z,1007.55
2017-10-15T00:17:36.529Z,1007.55
2017-10-15T00:18:36.562Z,1007.56
2017-10-15T00:19:36.597Z,1007.61
2017-10-15T00:20:36.634Z,1007.54
2017-10-15T00:21:36.664Z,1007.53
2017-10-15T00:22:36.700Z,1007.54
2017-10-15T00:23:36.734Z,1007.57
2017-10-15T00:24:36.767Z,1007.57
2017-10-15T00:25:36.802Z,1007.56
2017-10-15T00:26:36.835Z,1007.56
2017-10-15T00:27:36.870Z,1007.53
2017-10-15T00:28:36.902Z,1007.55
2017-10-15T00:29:36.937Z,1007.53
2017-10-15T00:30:36.972Z,1007.51
2017-10-15T00:31:37.005Z,1007.52
2017-10-15T00:32:37.039Z,1007.50
2017-10-15T00:33:37.079Z,1007.51
2017-10-15T00:34:37.107Z,1007.49
2017-10-15T00:35:37.141Z,1007.51
2017-10-15T00:36:37.173Z,1007.51
2017-10-15T00:37:37.208Z,1007.52
2017-10-15T00:38:37.243Z,1007.48
2017-10-15T00:39:37.278Z,1007.49
2017-10-15T00:40:37.316Z,1007.49
2017-10-15T00:41:37.344Z,1007.48
2017-10-15T00:42:37.378Z,1007.49
2017-10-15T00:43:37.413Z,1007.49
2017-10-15T00:44:37.446Z,1007.50
2017-10-15T00:45:37.481Z,1007.49
2017-10-15T00:46:37.519Z,1007.48
2017-10-15T00:47:37.549Z,1007.48
2017-10-15T00:48:37.589Z,1007.49
2017-10-15T00:49:37.615Z,1007.51
2017-10-15T00:50:37.650Z,1007.46
2017-10-15T00:51:37.685Z,1007.47
2017-10-15T00:52:37.718Z,1007.47
2017-10-15T00:53:37.752Z,1007.48
2017-10-15T00:54:37.786Z,1007.42
2017-10-15T00:55:37.820Z,1007.46
2017-10-15T00:56:37.854Z,1007.43
2017-10-15T00:57:37.889Z,1007.42
2017-10-15T00:58:37.922Z,1007.41
2017-10-15T00:59:37.961Z,1007.40
2017-10-15T01:00:37.997Z,1007.39
2017-10-15T01:01:38.024Z,1007.42
2017-10-15T01:02:38.058Z,1007.39
2017-10-15T01:03:38.093Z,1007.39
2017-10-15T01:04:38.125Z,1007.37
2017-10-15T01:05:38.159Z,1007.37
2017-10-15T01:06:38.194Z,1007.36
2017-10-15T01:07:38.228Z,1007.33
2017-10-15T01:08:38.262Z,1007.34
2017-10-15T01:09:38.297Z,1007.32
2017-10-15T01:10:38.331Z,1007.31
2017-10-15T01:11:38.363Z,1007.31
2017-10-15T01:12:38.396Z,1007.30
2017-10-15T01:13:38.429Z,1007.33
2017-10-15T01:14:38.465Z,1007.36
2017-10-15T01:15:38.499Z,1007.32
2017-10-15T01:16:38.533Z,1007.35
2017-10-15T01:17:38.566Z,1007.34
2017-10-15T01:18:38.601Z,1007.31
2017-10-15T01:19:38.641Z,1007.33
2017-10-15T01:20:38.668Z,1007.32
2017-10-15T01:21:38.702Z,1007.29
2017-10-15T01:22:38.736Z,1007.30
2017-10-15T01:23:38.770Z,1007.24
2017-10-15T01:24:38.805Z,1007.26
2017-10-15T01:25:38.837Z,1007.23
2017-10-15T01:26:38.871Z,1007.18
2017-10-15T01:27:38.905Z,1007.19
2017-10-15T01:28:38.942Z,1007.20
2017-10-15T01:29:38.971Z,1007.19
2017-10-15T01:30:39.005Z,1007.22
2017-10-15T01:31:39.038Z,1007.19
2017-10-15T01:32:39.072Z,1007.18
2017-10-15T01:33:39.106Z,1007.19
2017-10-15T01:34:39.140Z,1007.16
2017-10-15T01:35:39.173Z,1007.21
2017-10-15T01:36:39.206Z,1007.18
2017-10-15T01:37:39.241Z,1007.14
2017-10-15T01:38:39.276Z,1007.13
2017-10-15T01:39:39.308Z,1007.16
2017-10-15T01:40:39.341Z,1007.12
2017-10-15T01:41:39.375Z,1007.14
2017-10-15T01:42:39.408Z,1007.14
2017-10-15T01:43:39.442Z,1007.13
2017-10-15T01:44:39.474Z,1007.13
2017-10-15T01:45:39.508Z,1007.10
2017-10-15T01:46:39.540Z,1007.09
2017-10-15T01:47:39.581Z,1007.07
2017-10-15T01:48:39.607Z,1007.10
2017-10-15T01:49:39.639Z,1007.07
2017-10-15T01:50:39.675Z,1007.08
2017-10-15T01:51:39.707Z,1007.08
2017-10-15T01:52:39.740Z,1007.05
2017-10-15T01:53:39.774Z,1007.02
2017-10-15T01:54:39.808Z,1007.06
2017-10-15T01:55:39.841Z,1007.10
2017-10-15T01:56:39.873Z,1007.07
2017-10-15T01:57:39.906Z,1007.11
2017-10-15T01:58:39.940Z,1007.09
2017-10-15T01:59:39.974Z,1007.06
2017-10-15T02:00:40.006Z,1007.07
2017-10-15T02:01:40.039Z,1007.09
2017-10-15T02:02:40.073Z,1007.09
2017-10-15T02:03:40.106Z,1007.08
2017-10-15T02:04:40.141Z,1007.09
2017-10-15T02:05:40.173Z,1007.02
2017-10-15T02:06:40.206Z,1007.01
2017-10-15T02:07:40.239Z,1007.05
2017-10-15T02:08:40.272Z,1007.02
2017-10-15T02:09:40.305Z,1007.03
2017-10-15T02:10:40.342Z,1007.00
2017-10-15T02:11:40.371Z,1007.00
2017-10-15T02:12:40.404Z,1006.99
2017-10-15T02:13:40.439Z,1007.01
2017-10-15T02:14:40.471Z,1006.97
2017-10-15T02:15:40.505Z,1006.97
2017-10-15T02:16:40.536Z,1006.95
2017-10-15T02:17:40.570Z,1007.03
2017-10-15T02:18:40.603Z,1006.93
2017-10-15T02:19:40.637Z,1006.98
2017-10-15T02:20:40.670Z,1006.98
2017-10-15T02:21:40.702Z,1006.95
2017-10-15T02:22:40.736Z,1006.95
2017-10-15T02:23:40.771Z,1006.98
2017-10-15T02:24:40.802Z,1006.99
2017-10-15T02:25:40.839Z,1006.97
2017-10-15T02:26:40.869Z,1006.91
2017-10-15T02:27:40.903Z,1006.95
2017-10-15T02:28:40.984Z,1006.97
2017-10-15T02:29:40.969Z,1006.93
2017-10-15T02:30:41.002Z,1006.97
2017-10-15T02:31:41.033Z,1006.95
2017-10-15T02:32:41.069Z,1006.95
2017-10-15T02:33:41.100Z,1006.95
2017-10-15T02:34:41.133Z,1006.91
2017-10-15T02:35:41.169Z,1006.92
2017-10-15T02:36:41.200Z,1006.94
2017-10-15T02:37:41.232Z,1006.91
2017-10-15T02:38:41.266Z,1006.90
2017-10-15T02:39:41.301Z,1006.92
2017-10-15T02:40:41.334Z,1006.93
2017-10-15T02:41:41.366Z,1006.94
2017-10-15T02:42:41.398Z,1006.93
2017-10-15T02:43:41.432Z,1006.96
2017-10-15T02:44:41.465Z,1006.94
2017-10-15T02:45:41.500Z,1006.94
2017-10-15T02:46:41.533Z,1006.90
2017-10-15T02:47:41.566Z,1006.96
2017-10-15T02:48:41.597Z,1006.91
2017-10-15T02:49:41.631Z,1006.90
2017-10-15T02:50:41.664Z,1006.93
2017-10-15T02:51:41.703Z,1006.88
2017-10-15T02:52:41.730Z,1006.93
2017-10-15T02:53:41.763Z,1006.93
2017-10-15T02:54:41.797Z,1006.91
2017-10-15T02:55:41.830Z,1006.90
2017-10-15T02:56:41.862Z,1006.87
2017-10-15T02:57:41.896Z,1006.93
2017-10-15T02:58:41.928Z,1006.91
2017-10-15T02:59:41.962Z,1006.92
2017-10-15T03:00:41.996Z,1006.90
2017-10-15T03:01:42.028Z,1006.91
2017-10-15T03:02:42.061Z,1006.92
2017-10-15T03:03:42.095Z,1006.89
2017-10-15T03:04:42.127Z,1006.93
2017-10-15T03:05:42.161Z,1006.93
2017-10-15T03:06:42.194Z,1006.90
2017-10-15T03:07:42.228Z,1006.88
2017-10-15T03:08:42.260Z,1006.94
2017-10-15T03:09:42.292Z,1006.90
2017-10-15T03:10:42.326Z,1006.91
2017-10-15T03:11:42.360Z,1006.85
2017-10-15T03:12:42.396Z,1006.96
2017-10-15T03:13:42.425Z,1006.93
2017-10-15T03:14:42.458Z,1006.91
2017-10-15T03:15:42.492Z,1006.91
2017-10-15T03:16:42.524Z,1006.86
2017-10-15T03:17:42.559Z,1006.88
2017-10-15T03:18:42.591Z,1006.90
2017-10-15T03:19:42.624Z,1006.88
2017-10-15T03:20:42.663Z,1006.90
2017-10-15T03:21:42.690Z,1006.87
2017-10-15T03:22:42.723Z,1006.90
2017-10-15T03:23:42.761Z,1006.90
2017-10-15T03:24:42.791Z,1006.91
2017-10-15T03:25:42.821Z,1006.88
2017-10-15T03:26:42.855Z,1006.92
2017-10-15T03:27:42.888Z,1006.89
2017-10-15T03:28:42.923Z,1006.94
2017-10-15T03:29:42.953Z,1006.91
2017-10-15T03:30:42.989Z,1006.94
2017-10-15T03:31:43.021Z,1006.98
2017-10-15T03:32:43.052Z,1006.96
2017-10-15T03:33:43.085Z,1006.99
2017-10-15T03:34:43.119Z,1006.98
2017-10-15T03:35:43.153Z,1006.95
2017-10-15T03:36:43.184Z,1006.99
2017-10-15T03:37:43.218Z,1006.97
2017-10-15T03:38:43.252Z,1006.98
2017-10-15T03:39:43.284Z,1007.04
2017-10-15T03:40:43.316Z,1006.98
2017-10-15T03:41:43.352Z,1006.97
2017-10-15T03:42:43.382Z,1007.00
2017-10-15T03:43:43.416Z,1007.01
2017-10-15T03:44:43.447Z,1006.99
2017-10-15T03:45:43.483Z,1007.04
2017-10-15T03:46:43.515Z,1007.00
2017-10-15T03:47:43.549Z,1006.97
2017-10-15T03:48:43.581Z,1006.98
2017-10-15T03:49:43.614Z,1006.99
2017-10-15T03:50:43.648Z,1006.98
2017-10-15T03:51:43.680Z,1006.99
2017-10-15T03:52:43.713Z,1006.97
2017-10-15T03:53:43.745Z,1006.97
2017-10-15T03:54:43.781Z,1006.98
2017-10-15T03:55:43.811Z,1007.03
2017-10-15T03:56:43.844Z,1006.98
2017-10-15T03:57:43.878Z,1006.97
2017-10-15T03:58:43.910Z,1006.97
2017-10-15T03:59:43.944Z,1006.98
2017-10-15T04:00:43.976Z,1006.97
2017-10-15T04:01:44.008Z,1006.98
2017-10-15T04:02:44.045Z,1006.94
2017-10-15T04:03:44.075Z,1006.96
2017-10-15T04:04:44.108Z,1006.95
2017-10-15T04:05:44.140Z,1006.95
2017-10-15T04:06:44.174Z,1006.97
2017-10-15T04:07:44.208Z,1006.98
2017-10-15T04:08:44.237Z,1006.98
2017-10-15T04:09:44.279Z,1006.98
2017-10-15T04:10:44.305Z,1007.00
2017-10-15T04:11:44.337Z,1007.04
2017-10-15T04:12:44.370Z,1007.00
2017-10-15T04:13:44.409Z,1007.03
2017-10-15T04:14:44.438Z,1007.04
2017-10-15T04:15:44.469Z,1007.04
2017-10-15T04:16:44.501Z,1007.01
2017-10-15T04:17:44.534Z,1007.04
2017-10-15T04:18:44.568Z,1007.01
2017-10-15T04:19:44.601Z,1007.00
2017-10-15T04:20:44.632Z,1006.96
2017-10-15T04:21:44.666Z,1006.99
2017-10-15T04:22:44.697Z,1007.04
2017-10-15T04:23:44.732Z,1006.99
2017-10-15T04:24:44.764Z,1006.98
2017-10-15T04:25:44.796Z,1006.99
2017-10-15T04:26:44.830Z,1006.99
2017-10-15T04:27:44.862Z,1006.98
2017-10-15T04:28:44.894Z,1006.96
2017-10-15T04:29:44.927Z,1006.99
2017-10-15T04:30:44.965Z,1007.01
2017-10-15T04:31:44.993Z,1007.00
2017-10-15T04:32:45.025Z,1007.03
2017-10-15T04:33:45.059Z,1007.03
2017-10-15T04:34:45.091Z,1007.05
2017-10-15T04:35:45.125Z,1007.06
2017-10-15T04:36:45.157Z,1007.06
2017-10-15T04:37:45.189Z,1007.05
2017-10-15T04:38:45.222Z,1007.09
2017-10-15T04:39:45.256Z,1007.09
2017-10-15T04:40:45.287Z,1007.04
2017-10-15T04:41:45.322Z,1007.09
2017-10-15T04:42:45.354Z,1007.09
2017-10-15T04:43:45.388Z,1007.10
2017-10-15T04:44:45.419Z,1007.13
2017-10-15T04:45:45.452Z,1007.13
2017-10-15T04:46:45.486Z,1007.15
2017-10-15T04:47:45.518Z,1007.12
2017-10-15T04:48:45.551Z,1007.15
2017-10-15T04:49:45.584Z,1007.17
2017-10-15T04:50:45.617Z,1007.11
2017-10-15T04:51:45.650Z,1007.11
2017-10-15T04:52:45.683Z,1007.13
2017-10-15T04:53:45.715Z,1007.11
2017-10-15T04:54:45.750Z,1007.05
2017-10-15T04:55:45.782Z,1007.07
2017-10-15T04:56:45.814Z,1007.13
2017-10-15T04:57:45.846Z,1007.10
2017-10-15T04:58:45.879Z,1007.13
2017-10-15T04:59:45.912Z,1007.12
2017-10-15T05:00:45.944Z,1007.10
2017-10-15T05:01:45.977Z,1007.12
2017-10-15T05:02:46.011Z,1007.10
2017-10-15T05:03:46.051Z,1007.07
2017-10-15T05:04:46.076Z,1007.13
2017-10-15T05:05:46.108Z,1007.12
2017-10-15T05:06:46.142Z,1007.09
2017-10-15T05:07:46.178Z,1007.09
2017-10-15T05:08:46.207Z,1007.12
2017-10-15T05:09:46.239Z,1007.14
2017-10-15T05:10:46.276Z,1007.09
2017-10-15T05:11:46.306Z,1007.12
2017-10-15T05:12:46.336Z,1007.08
2017-10-15T05:13:46.369Z,1007.11
2017-10-15T05:14:46.400Z,1007.07
2017-10-15T05:15:46.434Z,1007.07
2017-10-15T05:16:46.466Z,1007.09
2017-10-15T05:17:46.499Z,1007.06
2017-10-15T05:18:46.532Z,1007.05
2017-10-15T05:19:46.564Z,1007.07
2017-10-15T05:20:46.598Z,1007.04
2017-10-15T05:21:46.629Z,1007.05
2017-10-15T05:22:46.662Z,1007.02
2017-10-15T05:23:46.694Z,1007.02
2017-10-15T05:24:46.728Z,1007.02
2017-10-15T05:25:46.760Z,1007.01
2017-10-15T05:26:46.793Z,1006.99
2017-10-15T05:27:46.825Z,1007.05
2017-10-15T05:28:46.863Z,1007.07
2017-10-15T05:29:46.889Z,1007.05
2017-10-15T05:30:46.923Z,1007.03
2017-10-15T05:31:46.954Z,1007.07
2017-10-15T05:32:46.986Z,1007.05
2017-10-15T05:33:47.021Z,1007.09
2017-10-15T05:34:47.052Z,1007.09
2017-10-15T05:35:47.084Z,1007.11
2017-10-15T05:36:47.115Z,1007.10
2017-10-15T05:37:47.148Z,1007.06
2017-10-15T05:38:47.182Z,1007.09
2017-10-15T05:39:47.214Z,1007.08
2017-10-15T05:40:47.246Z,1007.10
2017-10-15T05:41:47.278Z,1007.05
2017-10-15T05:42:47.310Z,1007.06
2017-10-15T05:43:47.344Z,1007.11
2017-10-15T05:44:47.376Z,1007.08
2017-10-15T05:45:47.408Z,1007.09
2017-10-15T05:46:47.442Z,1007.10
2017-10-15T05:47:47.473Z,1007.09
2017-10-15T05:48:47.505Z,1007.07
2017-10-15T05:49:47.538Z,1007.12
2017-10-15T05:50:47.572Z,1007.12
2017-10-15T05:51:47.602Z,1007.13
2017-10-15T05:52:47.635Z,1007.12
2017-10-15T05:53:47.668Z,1007.13
2017-10-15T05:54:47.700Z,1007.11
2017-10-15T05:55:47.733Z,1007.11
2017-10-15T05:56:47.764Z,1007.10
2017-10-15T05:57:47.796Z,1007.10
2017-10-15T05:58:47.828Z,1007.12
2017-10-15T05:59:47.862Z,1007.13
2017-10-15T06:00:47.893Z,1007.13
2017-10-15T06:01:47.925Z,1007.13
2017-10-15T06:02:47.958Z,1007.10
2017-10-15T06:03:47.990Z,1007.17
2017-10-15T06:04:48.022Z,1007.15
2017-10-15T06:05:48.055Z,1007.18
2017-10-15T06:06:48.087Z,1007.18
2017-10-15T06:07:48.124Z,1007.19
2017-10-15T06:08:48.152Z,1007.20
2017-10-15T06:09:48.184Z,1007.23
2017-10-15T06:10:48.218Z,1007.25
2017-10-15T06:11:48.249Z,1007.21
2017-10-15T06:12:48.281Z,1007.22
2017-10-15T06:13:48.315Z,1007.26
2017-10-15T06:14:48.346Z,1007.24
2017-10-15T06:15:48.378Z,1007.29
2017-10-15T06:16:48.410Z,1007.31
2017-10-15T06:17:48.443Z,1007.36
2017-10-15T06:18:48.477Z,1007.34
2017-10-15T06:19:48.508Z,1007.33
2017-10-15T06:20:48.540Z,1007.33
2017-10-15T06:21:48.573Z,1007.39
2017-10-15T06:22:48.606Z,1007.34
2017-10-15T06:23:48.641Z,1007.35
2017-10-15T06:24:48.669Z,1007.40
2017-10-15T06:25:48.704Z,1007.39
2017-10-15T06:26:48.735Z,1007.38
2017-10-15T06:27:48.768Z,1007.42
2017-10-15T06:28:48.800Z,1007.41
2017-10-15T06:29:48.835Z,1007.41
2017-10-15T06:30:48.865Z,1007.45
2017-10-15T06:31:48.899Z,1007.46
2017-10-15T06:32:48.930Z,1007.45
2017-10-15T06:33:48.962Z,1007.50
2017-10-15T06:34:48.995Z,1007.46
2017-10-15T06:35:49.027Z,1007.50
2017-10-15T06:36:49.059Z,1007.52
2017-10-15T06:37:49.093Z,1007.53
2017-10-15T06:38:49.125Z,1007.59
2017-10-15T06:39:49.158Z,1007.60
2017-10-15T06:40:49.191Z,1007.60
2017-10-15T06:41:49.223Z,1007.58
2017-10-15T06:42:49.256Z,1007.59
2017-10-15T06:43:49.290Z,1007.57
2017-10-15T06:44:49.321Z,1007.57
2017-10-15T06:45:49.354Z,1007.64
2017-10-15T06:46:49.387Z,1007.64
2017-10-15T06:47:49.421Z,1007.61
2017-10-15T06:48:49.453Z,1007.67
2017-10-15T06:49:49.485Z,1007.67
2017-10-15T06:50:49.518Z,1007.66
2017-10-15T06:51:49.552Z,1007.69
2017-10-15T06:52:49.582Z,1007.73
2017-10-15T06:53:49.617Z,1007.71
2017-10-15T06:54:49.650Z,1007.66
2017-10-15T06:55:49.688Z,1007.69
2017-10-15T06:56:49.717Z,1007.68
2017-10-15T06:57:49.751Z,1007.70
2017-10-15T06:58:49.787Z,1007.72
2017-10-15T06:59:49.816Z,1007.74
2017-10-15T07:00:49.849Z,1007.74
2017-10-15T07:01:49.882Z,1007.71
2017-10-15T07:02:49.916Z,1007.75
2017-10-15T07:03:49.950Z,1007.75
2017-10-15T07:04:49.982Z,1007.76
2017-10-15T07:05:50.016Z,1007.79
2017-10-15T07:06:50.053Z,1007.84
2017-10-15T07:07:50.083Z,1007.74
2017-10-15T07:08:50.116Z,1007.76
2017-10-15T07:09:50.150Z,1007.77
2017-10-15T07:10:50.184Z,1007.73
2017-10-15T07:11:50.219Z,1007.74
2017-10-15T07:12:50.251Z,1007.76
2017-10-15T07:13:50.286Z,1007.76
2017-10-15T07:14:50.319Z,1007.79
2017-10-15T07:15:50.354Z,1007.80
2017-10-15T07:16:50.387Z,1007.81
2017-10-15T07:17:50.422Z,1007.84
2017-10-15T07:18:50.456Z,1007.83
2017-10-15T07:19:50.494Z,1007.91
2017-10-15T07:20:50.524Z,1007.89
2017-10-15T07:21:50.567Z,1007.90
2017-10-15T07:22:50.593Z,1007.88
2017-10-15T07:23:50.629Z,1007.84
2017-10-15T07:24:50.662Z,1007.87
2017-10-15T07:25:50.697Z,1007.88
2017-10-15T07:26:50.730Z,1007.85
2017-10-15T07:27:50.766Z,1007.89
2017-10-15T07:28:50.801Z,1007.87
2017-10-15T07:29:50.835Z,1007.86
2017-10-15T07:30:50.872Z,1007.90
2017-10-15T07:31:50.908Z,1007.87
2017-10-15T07:32:50.940Z,1007.90
2017-10-15T07:33:50.975Z,1007.90
2017-10-15T07:34:51.011Z,1007.90
2017-10-15T07:35:51.047Z,1007.86
2017-10-15T07:36:51.082Z,1007.86
2017-10-15T07:37:51.119Z,1007.88
2017-10-15T07:38:51.159Z,1007.90
2017-10-15T07:39:51.189Z,1007.90
2017-10-15T07:40:51.223Z,1007.90
2017-10-15T07:41:51.267Z,1007.91
2017-10-15T07:42:51.295Z,1007.90
2017-10-15T07:43:51.332Z,1007.90
2017-10-15T07:44:51.367Z,1007.91
2017-10-15T07:45:51.403Z,1007.91
2017-10-15T07:46:51.439Z,1007.93
2017-10-15T07:47:51.475Z,1007.88
2017-10-15T07:48:51.517Z,1007.94
2017-10-15T07:49:51.548Z,1007.95
2017-10-15T07:50:51.585Z,1008.00
2017-10-15T07:51:51.623Z,1008.05
2017-10-15T07:52:51.657Z,1008.00
2017-10-15T07:53:51.699Z,1008.00
2017-10-15T07:54:51.733Z,1008.02
2017-10-15T07:55:51.772Z,1008.03
2017-10-15T07:56:51.809Z,1007.98
2017-10-15T07:57:51.846Z,1008.04
2017-10-15T07:58:51.884Z,1008.00
2017-10-15T07:59:51.922Z,1008.02
2017-10-15T08:00:51.961Z,1008.01
2017-10-15T08:01:52.000Z,1008.02
2017-10-15T08:02:52.037Z,1008.02
2017-10-15T08:03:52.076Z,1008.03
2017-10-15T08:04:52.115Z,1008.02
2017-10-15T08:05:52.157Z,1007.98
2017-10-15T08:06:52.193Z,1007.99
2017-10-15T08:07:52.232Z,1008.01
2017-10-15T08:08:52.272Z,1007.97
2017-10-15T08:09:52.311Z,1007.97
2017-10-15T08:10:52.352Z,1007.98
2017-10-15T08:11:52.391Z,1007.95
2017-10-15T08:12:52.431Z,1007.97
2017-10-15T08:13:52.469Z,1007.96
2017-10-15T08:14:52.511Z,1007.97
2017-10-15T08:15:52.552Z,1007.97
2017-10-15T08:16:52.592Z,1007.94
2017-10-15T08:17:52.634Z,1007.95
2017-10-15T08:18:52.673Z,1007.95
2017-10-15T08:19:52.715Z,1007.94
2017-10-15T08:20:52.756Z,1007.98
2017-10-15T08:21:52.797Z,1007.98
2017-10-15T08:22:52.838Z,1007.95
2017-10-15T08:23:52.881Z,1007.93
2017-10-15T08:24:52.921Z,1007.94
2017-10-15T08:25:52.963Z,1007.97
2017-10-15T08:26:53.005Z,1007.99
2017-10-15T08:27:53.048Z,1007.94
2017-10-15T08:28:53.088Z,1007.97
2017-10-15T08:29:53.131Z,1007.97
2017-10-15T08:30:53.174Z,1008.01
2017-10-15T08:31:53.215Z,1008.03
2017-10-15T08:32:53.257Z,1008.01
2017-10-15T08:33:53.302Z,1008.03
2017-10-15T08:34:53.343Z,1008.00
2017-10-15T08:35:53.386Z,1007.98
2017-10-15T08:36:53.428Z,1008.01
2017-10-15T08:37:53.471Z,1008.01
2017-10-15T08:38:53.513Z,1008.02
2017-10-15T08:39:53.559Z,1007.99
2017-10-15T08:40:53.601Z,1008.00
2017-10-15T08:41:53.646Z,1008.03
2017-10-15T08:42:53.690Z,1008.04
2017-10-15T08:43:53.733Z,1008.03
2017-10-15T08:44:53.776Z,1008.05
2017-10-15T08:45:53.820Z,1008.00
2017-10-15T08:46:53.867Z,1008.02
2017-10-15T08:47:53.918Z,1008.03
2017-10-15T08:48:53.953Z,1008.01
2017-10-15T08:49:53.999Z,1007.96
2017-10-15T08:50:54.051Z,1008.02
2017-10-15T08:51:54.090Z,1008.02
2017-10-15T08:52:54.132Z,1008.01
2017-10-15T08:53:54.178Z,1008.00
2017-10-15T08:54:54.225Z,1007.98
2017-10-15T08:55:54.271Z,1008.00
2017-10-15T08:56:54.316Z,1007.97
2017-10-15T08:57:54.362Z,1007.96
2017-10-15T08:58:54.410Z,1008.00
2017-10-15T08:59:54.454Z,1008.01
2017-10-15T09:00:54.500Z,1007.97
2017-10-15T09:01:54.548Z,1007.99
2017-10-15T09:02:54.594Z,1008.04
2017-10-15T09:03:54.639Z,1008.05
2017-10-15T09:04:54.687Z,1008.02
2017-10-15T09:05:54.735Z,1008.06
2017-10-15T09:06:54.790Z,1008.11
2017-10-15T09:07:54.830Z,1008.05
2017-10-15T09:08:54.877Z,1008.05
2017-10-15T09:09:54.926Z,1008.07
2017-10-15T09:10:54.973Z,1008.10
2017-10-15T09:11:55.021Z,1008.04
2017-10-15T09:12:55.068Z,1008.02
2017-10-15T09:13:55.118Z,1008.05
2017-10-15T09:14:55.170Z,1008.03
2017-10-15T09:15:55.216Z,1008.04
2017-10-15T09:16:55.264Z,1008.00
2017-10-15T09:17:55.313Z,1007.99
2017-10-15T09:18:55.363Z,1008.02
2017-10-15T09:19:55.412Z,1008.04
2017-10-15T09:20:55.461Z,1008.02
2017-10-15T09:21:55.511Z,1008.01
2017-10-15T09:22:55.561Z,1008.02
2017-10-15T09:23:55.611Z,1008.03
2017-10-15T09:24:55.661Z,1008.03
2017-10-15T09:25:55.711Z,1008.06
2017-10-15T09:26:55.762Z,1008.00
2017-10-15T09:27:55.812Z,1007.96
2017-10-15T09:28:55.863Z,1008.02
2017-10-15T09:29:55.913Z,1008.01
2017-10-15T09:30:55.968Z,1008.01
2017-10-15T09:31:56.016Z,1007.98
2017-10-15T09:32:56.065Z,1007.98
2017-10-15T09:33:56.116Z,1007.99
2017-10-15T09:34:56.168Z,1008.01
2017-10-15T09:35:56.220Z,1007.97
2017-10-15T09:36:56.271Z,1008.00
2017-10-15T09:37:56.322Z,1007.96
2017-10-15T09:38:56.374Z,1007.96
2017-10-15T09:39:56.426Z,1007.97
2017-10-15T09:40:56.477Z,1007.98
2017-10-15T09:41:56.529Z,1007.99
2017-10-15T09:42:56.583Z,1007.94
2017-10-15T09:43:56.633Z,1007.96
2017-10-15T09:44:56.685Z,1007.97
2017-10-15T09:45:56.748Z,1007.92
2017-10-15T09:46:56.790Z,1007.98
2017-10-15T09:47:56.842Z,1007.99
2017-10-15T09:48:56.894Z,1007.93
2017-10-15T09:49:56.948Z,1007.94
2017-10-15T09:50:57.000Z,1007.94
2017-10-15T09:51:57.052Z,1007.97
2017-10-15T09:52:57.104Z,1007.95
2017-10-15T09:53:57.157Z,1007.93
2017-10-15T09:54:57.211Z,1007.93
2017-10-15T09:55:57.263Z,1007.91
2017-10-15T09:56:57.317Z,1007.92
2017-10-15T09:57:57.369Z,1007.87
2017-10-15T09:58:57.423Z,1007.90
2017-10-15T09:59:57.476Z,1007.88
2017-10-15T10:00:57.529Z,1007.88
2017-10-15T10:01:57.583Z,1007.89
2017-10-15T10:02:57.637Z,1007.91
2017-10-15T10:03:57.690Z,1007.92
2017-10-15T10:04:57.744Z,1007.89
2017-10-15T10:05:57.796Z,1007.88
2017-10-15T10:06:57.853Z,1007.88
2017-10-15T10:07:57.904Z,1007.91
2017-10-15T10:08:57.967Z,1007.92
2017-10-15T10:09:58.012Z,1007.90
2017-10-15T10:10:58.066Z,1007.91
2017-10-15T10:11:58.120Z,1007.88
2017-10-15T10:12:58.174Z,1007.93
2017-10-15T10:13:58.228Z,1007.91
2017-10-15T10:14:58.289Z,1007.86
2017-10-15T10:15:58.337Z,1007.88
2017-10-15T10:16:58.392Z,1007.87
2017-10-15T10:17:58.449Z,1007.92
2017-10-15T10:18:58.500Z,1007.93
2017-10-15T10:19:58.555Z,1007.89
2017-10-15T10:20:58.621Z,1007.89
2017-10-15T10:21:58.663Z,1007.88
2017-10-15T10:22:58.719Z,1007.86
2017-10-15T10:23:58.774Z,1007.87
2017-10-15T10:24:58.841Z,1007.87
2017-10-15T10:25:58.883Z,1007.89
2017-10-15T10:26:58.938Z,1007.90
2017-10-15T10:27:58.994Z,1007.91
2017-10-15T10:28:59.047Z,1007.88
2017-10-15T10:29:59.102Z,1007.86
2017-10-15T10:30:59.158Z,1007.91
2017-10-15T10:31:59.213Z,1007.85
2017-10-15T10:32:59.267Z,1007.84
2017-10-15T10:33:59.323Z,1007.85
2017-10-15T10:34:59.378Z,1007.84
2017-10-15T10:35:59.441Z,1007.82
2017-10-15T10:36:59.489Z,1007.86
2017-10-15T10:37:59.543Z,1007.79
2017-10-15T10:38:59.599Z,1007.79
2017-10-15T10:39:59.655Z,1007.79
2017-10-15T10:40:59.710Z,1007.79
2017-10-15T10:41:59.772Z,1007.78
2017-10-15T10:42:59.820Z,1007.76
2017-10-15T10:43:59.876Z,1007.79
2017-10-15T10:44:59.931Z,1007.74
2017-10-15T10:45:59.988Z,1007.79
2017-10-15T10:47:00.045Z,1007.80
2017-10-15T10:48:00.099Z,1007.73
2017-10-15T10:49:00.154Z,1007.74
2017-10-15T10:50:00.209Z,1007.73
2017-10-15T10:51:00.416Z,1007.73
2017-10-15T10:52:00.322Z,1007.74
2017-10-15T10:53:00.378Z,1007.73
2017-10-15T10:54:00.433Z,1007.72
2017-10-15T10:55:00.490Z,1007.71
2017-10-15T10:56:00.548Z,1007.72
2017-10-15T10:57:00.703Z,1007.70
2017-10-15T10:58:00.658Z,1007.70
2017-10-15T10:59:00.712Z,1007.69
2017-10-15T11:00:00.770Z,1007.69
2017-10-15T11:01:00.825Z,1007.67
2017-10-15T11:02:00.934Z,1007.65
2017-10-15T11:03:00.938Z,1007.58
2017-10-15T11:04:00.995Z,1007.58
2017-10-15T11:05:01.050Z,1007.60
2017-10-15T11:06:01.109Z,1007.57
2017-10-15T11:07:01.164Z,1007.59
2017-10-15T11:08:01.220Z,1007.59
2017-10-15T11:09:01.285Z,1007.62
2017-10-15T11:10:01.332Z,1007.61
2017-10-15T11:11:01.388Z,1007.61
2017-10-15T11:12:01.446Z,1007.57
2017-10-15T11:13:01.502Z,1007.57
2017-10-15T11:14:01.558Z,1007.52
2017-10-15T11:15:01.615Z,1007.52
2017-10-15T11:16:01.674Z,1007.53
2017-10-15T11:17:01.726Z,1007.51
2017-10-15T11:18:01.784Z,1007.54
2017-10-15T11:19:01.842Z,1007.50
2017-10-15T11:20:01.899Z,1007.50
2017-10-15T11:21:01.952Z,1007.52
2017-10-15T11:22:02.010Z,1007.50
2017-10-15T11:23:02.067Z,1007.53
2017-10-15T11:24:02.126Z,1007.52
2017-10-15T11:25:02.180Z,1007.52
2017-10-15T11:26:02.237Z,1007.51
2017-10-15T11:27:02.294Z,1007.50
2017-10-15T11:28:02.353Z,1007.50
2017-10-15T11:29:02.407Z,1007.48
2017-10-15T11:30:02.464Z,1007.46
2017-10-15T11:31:02.521Z,1007.46
2017-10-15T11:32:02.579Z,1007.45
2017-10-15T11:33:02.634Z,1007.42
2017-10-15T11:34:02.692Z,1007.41
2017-10-15T11:35:02.748Z,1007.39
2017-10-15T11:36:02.806Z,1007.36
2017-10-15T11:37:02.861Z,1007.36
2017-10-15T11:38:02.920Z,1007.35
2017-10-15T11:39:02.976Z,1007.33
2017-10-15T11:40:03.039Z,1007.33
2017-10-15T11:41:03.089Z,1007.32
2017-10-15T11:42:03.146Z,1007.38
2017-10-15T11:43:03.204Z,1007.36
2017-10-15T11:44:03.261Z,1007.28
2017-10-15T11:45:03.318Z,1007.26
2017-10-15T11:46:03.375Z,1007.27
2017-10-15T11:47:03.432Z,1007.25
2017-10-15T11:48:03.490Z,1007.22
2017-10-15T11:49:03.545Z,1007.26
2017-10-15T11:50:03.603Z,1007.24
2017-10-15T11:51:03.661Z,1007.25
2017-10-15T11:52:03.719Z,1007.22
2017-10-15T11:53:03.784Z,1007.21
2017-10-15T11:54:03.832Z,1007.21
2017-10-15T11:55:03.894Z,1007.26
2017-10-15T11:56:03.948Z,1007.31
2017-10-15T11:57:04.005Z,1007.32
2017-10-15T11:58:04.062Z,1007.29
2017-10-15T11:59:04.119Z,1007.27
2017-10-15T12:00:04.178Z,1007.28
2017-10-15T12:01:04.435Z,1007.26
2017-10-15T12:02:04.296Z,1007.20
2017-10-15T12:03:04.368Z,1007.17
2017-10-15T12:04:04.408Z,1007.13
2017-10-15T12:05:04.472Z,1007.13
2017-10-15T12:06:04.523Z,1007.14